sensor_id;sensor_type;location;lat;lon;timestamp;temperature;humidity
41784;DHT22;27458;53.236;-6.622;2022-07-19T00:02:03;25.00;55.00
41784;DHT22;27458;53.236;-6.622;2022-07-19T00:04:32;24.90;55.10
41784;DHT22;27458;53.236;-6.622;2022-07-19T00:06:58;24.90;55.30
41784;DHT22;27458;53.236;-6.622;2022-07-19T00:09:25;24.80;55.40
41784;DHT22;27458;53.236;-6.622;2022-07-19T00:11:54;24.80;55.50
41784;DHT22;27458;53.236;-6.622;2022-07-19T00:14:20;24.80;55.60
41784;DHT22;27458;53.236;-6.622;2022-07-19T00:16:46;24.80;55.60
41784;DHT22;27458;53.236;-6.622;2022-07-19T00:19:12;24.80;56.00
41784;DHT22;27458;53.236;-6.622;2022-07-19T00:21:38;24.80;56.20
41784;DHT22;27458;53.236;-6.622;2022-07-19T00:24:04;24.70;56.30
41784;DHT22;27458;53.236;-6.622;2022-07-19T00:26:30;24.70;56.40
41784;DHT22;27458;53.236;-6.622;2022-07-19T00:28:56;24.70;56.50
41784;DHT22;27458;53.236;-6.622;2022-07-19T00:31:24;24.70;56.50
41784;DHT22;27458;53.236;-6.622;2022-07-19T00:33:50;24.70;56.60
41784;DHT22;27458;53.236;-6.622;2022-07-19T00:36:16;24.70;56.60
41784;DHT22;27458;53.236;-6.622;2022-07-19T00:38:41;24.60;56.60
41784;DHT22;27458;53.236;-6.622;2022-07-19T00:41:07;24.60;56.70
41784;DHT22;27458;53.236;-6.622;2022-07-19T00:43:33;24.50;56.90
41784;DHT22;27458;53.236;-6.622;2022-07-19T00:45:59;24.40;57.20
41784;DHT22;27458;53.236;-6.622;2022-07-19T00:48:25;24.40;57.40
41784;DHT22;27458;53.236;-6.622;2022-07-19T00:50:53;24.30;57.40
41784;DHT22;27458;53.236;-6.622;2022-07-19T00:53:19;24.30;57.40
41784;DHT22;27458;53.236;-6.622;2022-07-19T00:55:45;24.30;57.50
41784;DHT22;27458;53.236;-6.622;2022-07-19T00:58:12;24.20;57.70
41784;DHT22;27458;53.236;-6.622;2022-07-19T01:00:41;24.20;57.80
41784;DHT22;27458;53.236;-6.622;2022-07-19T01:03:07;24.20;57.80
41784;DHT22;27458;53.236;-6.622;2022-07-19T01:05:34;24.20;57.90
41784;DHT22;27458;53.236;-6.622;2022-07-19T01:08:00;24.20;58.00
41784;DHT22;27458;53.236;-6.622;2022-07-19T01:10:26;24.20;58.00
41784;DHT22;27458;53.236;-6.622;2022-07-19T01:12:53;24.20;58.00
41784;DHT22;27458;53.236;-6.622;2022-07-19T01:15:21;24.20;58.00
41784;DHT22;27458;53.236;-6.622;2022-07-19T01:17:47;24.20;58.00
41784;DHT22;27458;53.236;-6.622;2022-07-19T01:20:14;24.20;58.00
41784;DHT22;27458;53.236;-6.622;2022-07-19T01:22:41;24.20;58.00
41784;DHT22;27458;53.236;-6.622;2022-07-19T01:25:08;24.10;58.00
41784;DHT22;27458;53.236;-6.622;2022-07-19T01:27:40;24.10;58.30
41784;DHT22;27458;53.236;-6.622;2022-07-19T01:30:11;24.10;58.40
41784;DHT22;27458;53.236;-6.622;2022-07-19T01:32:37;24.00;58.40
41784;DHT22;27458;53.236;-6.622;2022-07-19T01:35:03;24.00;58.50
41784;DHT22;27458;53.236;-6.622;2022-07-19T01:37:29;24.00;58.60
41784;DHT22;27458;53.236;-6.622;2022-07-19T01:39:55;24.00;58.70
41784;DHT22;27458;53.236;-6.622;2022-07-19T01:42:23;23.90;58.80
41784;DHT22;27458;53.236;-6.622;2022-07-19T01:44:50;23.90;59.10
41784;DHT22;27458;53.236;-6.622;2022-07-19T01:47:16;23.80;59.30
41784;DHT22;27458;53.236;-6.622;2022-07-19T01:49:41;23.80;59.40
41784;DHT22;27458;53.236;-6.622;2022-07-19T01:52:07;23.80;59.40
41784;DHT22;27458;53.236;-6.622;2022-07-19T01:54:33;23.90;59.50
41784;DHT22;27458;53.236;-6.622;2022-07-19T01:56:59;23.80;59.40
41784;DHT22;27458;53.236;-6.622;2022-07-19T01:59:24;23.80;59.60
41784;DHT22;27458;53.236;-6.622;2022-07-19T02:01:50;23.80;59.60
41784;DHT22;27458;53.236;-6.622;2022-07-19T02:04:17;23.90;59.80
41784;DHT22;27458;53.236;-6.622;2022-07-19T02:06:42;23.80;59.90
41784;DHT22;27458;53.236;-6.622;2022-07-19T02:09:08;23.80;60.10
41784;DHT22;27458;53.236;-6.622;2022-07-19T02:11:34;23.80;60.20
41784;DHT22;27458;53.236;-6.622;2022-07-19T02:14:08;23.80;60.80
41784;DHT22;27458;53.236;-6.622;2022-07-19T02:16:37;23.70;60.20
41784;DHT22;27458;53.236;-6.622;2022-07-19T02:19:04;23.70;60.20
41784;DHT22;27458;53.236;-6.622;2022-07-19T02:21:30;23.70;60.40
41784;DHT22;27458;53.236;-6.622;2022-07-19T02:23:56;23.60;60.60
41784;DHT22;27458;53.236;-6.622;2022-07-19T02:26:22;23.60;60.90
41784;DHT22;27458;53.236;-6.622;2022-07-19T02:28:48;23.50;61.00
41784;DHT22;27458;53.236;-6.622;2022-07-19T02:31:13;23.50;61.30
41784;DHT22;27458;53.236;-6.622;2022-07-19T02:33:39;23.50;61.40
41784;DHT22;27458;53.236;-6.622;2022-07-19T02:36:05;23.50;61.30
41784;DHT22;27458;53.236;-6.622;2022-07-19T02:38:32;23.40;61.10
41784;DHT22;27458;53.236;-6.622;2022-07-19T02:40:58;23.40;61.30
41784;DHT22;27458;53.236;-6.622;2022-07-19T02:43:24;23.40;61.40
41784;DHT22;27458;53.236;-6.622;2022-07-19T02:45:50;23.40;61.60
41784;DHT22;27458;53.236;-6.622;2022-07-19T02:48:16;23.30;61.60
41784;DHT22;27458;53.236;-6.622;2022-07-19T02:50:42;23.20;61.70
41784;DHT22;27458;53.236;-6.622;2022-07-19T02:53:08;23.20;62.10
41784;DHT22;27458;53.236;-6.622;2022-07-19T02:55:34;23.10;62.20
41784;DHT22;27458;53.236;-6.622;2022-07-19T02:57:59;23.10;62.40
41784;DHT22;27458;53.236;-6.622;2022-07-19T03:00:25;23.10;62.30
41784;DHT22;27458;53.236;-6.622;2022-07-19T03:02:51;23.10;62.30
41784;DHT22;27458;53.236;-6.622;2022-07-19T03:05:18;23.10;62.30
41784;DHT22;27458;53.236;-6.622;2022-07-19T03:07:44;23.10;62.50
41784;DHT22;27458;53.236;-6.622;2022-07-19T03:10:10;23.00;62.40
41784;DHT22;27458;53.236;-6.622;2022-07-19T03:12:35;23.00;62.40
41784;DHT22;27458;53.236;-6.622;2022-07-19T03:15:02;23.10;62.50
41784;DHT22;27458;53.236;-6.622;2022-07-19T03:17:28;23.10;62.50
41784;DHT22;27458;53.236;-6.622;2022-07-19T03:19:54;23.10;62.20
41784;DHT22;27458;53.236;-6.622;2022-07-19T03:22:20;23.10;62.10
41784;DHT22;27458;53.236;-6.622;2022-07-19T03:24:45;23.10;62.20
41784;DHT22;27458;53.236;-6.622;2022-07-19T03:27:11;23.10;62.20
41784;DHT22;27458;53.236;-6.622;2022-07-19T03:29:37;23.10;62.30
41784;DHT22;27458;53.236;-6.622;2022-07-19T03:32:03;23.10;62.50
41784;DHT22;27458;53.236;-6.622;2022-07-19T03:34:29;23.00;62.70
41784;DHT22;27458;53.236;-6.622;2022-07-19T03:36:55;22.90;62.80
41784;DHT22;27458;53.236;-6.622;2022-07-19T03:39:23;22.90;63.00
41784;DHT22;27458;53.236;-6.622;2022-07-19T03:41:48;22.90;63.10
41784;DHT22;27458;53.236;-6.622;2022-07-19T03:44:14;22.80;63.10
41784;DHT22;27458;53.236;-6.622;2022-07-19T03:46:40;22.80;63.10
41784;DHT22;27458;53.236;-6.622;2022-07-19T03:49:05;22.80;63.20
41784;DHT22;27458;53.236;-6.622;2022-07-19T03:51:31;22.80;63.20
41784;DHT22;27458;53.236;-6.622;2022-07-19T03:53:57;22.70;63.20
41784;DHT22;27458;53.236;-6.622;2022-07-19T03:56:22;22.70;63.10
41784;DHT22;27458;53.236;-6.622;2022-07-19T03:58:49;22.60;63.00
41784;DHT22;27458;53.236;-6.622;2022-07-19T04:01:16;22.60;63.10
41784;DHT22;27458;53.236;-6.622;2022-07-19T04:03:42;22.60;63.00
41784;DHT22;27458;53.236;-6.622;2022-07-19T04:06:10;22.60;62.80
41784;DHT22;27458;53.236;-6.622;2022-07-19T04:08:36;22.60;62.90
41784;DHT22;27458;53.236;-6.622;2022-07-19T04:11:03;22.60;62.70
41784;DHT22;27458;53.236;-6.622;2022-07-19T04:13:29;22.60;62.60
41784;DHT22;27458;53.236;-6.622;2022-07-19T04:15:57;22.60;62.60
41784;DHT22;27458;53.236;-6.622;2022-07-19T04:18:22;22.60;62.80
41784;DHT22;27458;53.236;-6.622;2022-07-19T04:20:48;22.50;63.00
41784;DHT22;27458;53.236;-6.622;2022-07-19T04:23:14;22.40;63.30
41784;DHT22;27458;53.236;-6.622;2022-07-19T04:25:39;22.40;63.60
41784;DHT22;27458;53.236;-6.622;2022-07-19T04:28:05;22.40;63.70
41784;DHT22;27458;53.236;-6.622;2022-07-19T04:30:33;22.40;63.70
41784;DHT22;27458;53.236;-6.622;2022-07-19T04:32:58;22.30;63.70
41784;DHT22;27458;53.236;-6.622;2022-07-19T04:35:24;22.30;63.80
41784;DHT22;27458;53.236;-6.622;2022-07-19T04:37:50;22.30;63.90
41784;DHT22;27458;53.236;-6.622;2022-07-19T04:40:15;22.20;64.00
41784;DHT22;27458;53.236;-6.622;2022-07-19T04:42:41;22.20;64.20
41784;DHT22;27458;53.236;-6.622;2022-07-19T04:45:07;22.20;64.40
41784;DHT22;27458;53.236;-6.622;2022-07-19T04:47:33;22.20;64.40
41784;DHT22;27458;53.236;-6.622;2022-07-19T04:49:59;22.20;64.40
41784;DHT22;27458;53.236;-6.622;2022-07-19T04:52:24;22.20;64.60
41784;DHT22;27458;53.236;-6.622;2022-07-19T04:54:50;22.30;64.50
41784;DHT22;27458;53.236;-6.622;2022-07-19T04:57:16;22.30;64.40
41784;DHT22;27458;53.236;-6.622;2022-07-19T04:59:41;22.40;64.40
41784;DHT22;27458;53.236;-6.622;2022-07-19T05:02:07;22.40;64.40
41784;DHT22;27458;53.236;-6.622;2022-07-19T05:04:33;22.40;64.30
41784;DHT22;27458;53.236;-6.622;2022-07-19T05:06:59;22.60;64.30
41784;DHT22;27458;53.236;-6.622;2022-07-19T05:09:25;22.60;64.30
41784;DHT22;27458;53.236;-6.622;2022-07-19T05:11:52;22.60;64.40
41784;DHT22;27458;53.236;-6.622;2022-07-19T05:14:19;22.60;64.60
41784;DHT22;27458;53.236;-6.622;2022-07-19T05:16:45;22.60;64.60
41784;DHT22;27458;53.236;-6.622;2022-07-19T05:19:11;22.60;64.60
41784;DHT22;27458;53.236;-6.622;2022-07-19T05:21:37;22.70;64.60
41784;DHT22;27458;53.236;-6.622;2022-07-19T05:24:03;22.70;64.50
41784;DHT22;27458;53.236;-6.622;2022-07-19T05:26:29;22.70;64.40
41784;DHT22;27458;53.236;-6.622;2022-07-19T05:28:59;22.70;64.40
41784;DHT22;27458;53.236;-6.622;2022-07-19T05:31:25;22.70;64.50
41784;DHT22;27458;53.236;-6.622;2022-07-19T05:33:51;22.80;64.50
41784;DHT22;27458;53.236;-6.622;2022-07-19T05:36:17;22.80;64.50
41784;DHT22;27458;53.236;-6.622;2022-07-19T05:38:43;22.90;64.40
41784;DHT22;27458;53.236;-6.622;2022-07-19T05:41:09;22.90;64.30
41784;DHT22;27458;53.236;-6.622;2022-07-19T05:43:37;22.90;64.20
41784;DHT22;27458;53.236;-6.622;2022-07-19T05:46:04;22.90;64.00
41784;DHT22;27458;53.236;-6.622;2022-07-19T05:48:30;23.00;63.90
41784;DHT22;27458;53.236;-6.622;2022-07-19T05:50:57;23.10;63.90
41784;DHT22;27458;53.236;-6.622;2022-07-19T05:53:22;23.10;63.80
41784;DHT22;27458;53.236;-6.622;2022-07-19T05:55:48;23.20;63.60
41784;DHT22;27458;53.236;-6.622;2022-07-19T05:58:14;23.30;63.40
41784;DHT22;27458;53.236;-6.622;2022-07-19T06:00:43;23.40;63.10
41784;DHT22;27458;53.236;-6.622;2022-07-19T06:03:29;23.50;62.90
41784;DHT22;27458;53.236;-6.622;2022-07-19T06:05:54;23.50;62.70
41784;DHT22;27458;53.236;-6.622;2022-07-19T06:08:20;23.60;62.60
41784;DHT22;27458;53.236;-6.622;2022-07-19T06:10:46;23.60;62.40
41784;DHT22;27458;53.236;-6.622;2022-07-19T06:13:11;23.70;62.20
41784;DHT22;27458;53.236;-6.622;2022-07-19T06:15:37;23.70;62.20
41784;DHT22;27458;53.236;-6.622;2022-07-19T06:18:04;23.70;62.30
41784;DHT22;27458;53.236;-6.622;2022-07-19T06:20:30;23.70;62.50
41784;DHT22;27458;53.236;-6.622;2022-07-19T06:22:56;23.80;62.60
41784;DHT22;27458;53.236;-6.622;2022-07-19T06:25:21;23.80;62.70
41784;DHT22;27458;53.236;-6.622;2022-07-19T06:27:51;23.80;62.80
41784;DHT22;27458;53.236;-6.622;2022-07-19T06:30:16;23.80;62.90
41784;DHT22;27458;53.236;-6.622;2022-07-19T06:32:42;23.90;63.00
41784;DHT22;27458;53.236;-6.622;2022-07-19T06:35:08;23.90;63.00
41784;DHT22;27458;53.236;-6.622;2022-07-19T06:37:34;24.00;62.80
41784;DHT22;27458;53.236;-6.622;2022-07-19T06:40:00;24.00;62.70
41784;DHT22;27458;53.236;-6.622;2022-07-19T06:42:25;24.00;62.60
41784;DHT22;27458;53.236;-6.622;2022-07-19T06:44:51;24.10;62.60
41784;DHT22;27458;53.236;-6.622;2022-07-19T06:47:17;24.10;62.30
41784;DHT22;27458;53.236;-6.622;2022-07-19T06:49:42;24.20;62.30
41784;DHT22;27458;53.236;-6.622;2022-07-19T06:52:08;24.50;62.60
41784;DHT22;27458;53.236;-6.622;2022-07-19T06:54:34;24.80;62.50
41784;DHT22;27458;53.236;-6.622;2022-07-19T06:56:59;25.10;61.90
41784;DHT22;27458;53.236;-6.622;2022-07-19T06:59:25;25.40;61.50
41784;DHT22;27458;53.236;-6.622;2022-07-19T07:01:51;25.50;61.00
41784;DHT22;27458;53.236;-6.622;2022-07-19T07:04:18;25.60;60.60
41784;DHT22;27458;53.236;-6.622;2022-07-19T07:06:44;25.60;60.10
41784;DHT22;27458;53.236;-6.622;2022-07-19T07:09:10;25.70;59.90
41784;DHT22;27458;53.236;-6.622;2022-07-19T07:11:36;25.60;59.70
41784;DHT22;27458;53.236;-6.622;2022-07-19T07:14:02;25.60;59.50
41784;DHT22;27458;53.236;-6.622;2022-07-19T07:16:27;25.50;59.40
41784;DHT22;27458;53.236;-6.622;2022-07-19T07:18:53;25.50;59.60
41784;DHT22;27458;53.236;-6.622;2022-07-19T07:21:19;25.40;59.80
41784;DHT22;27458;53.236;-6.622;2022-07-19T07:23:45;25.50;60.00
41784;DHT22;27458;53.236;-6.622;2022-07-19T07:26:10;25.60;60.20
41784;DHT22;27458;53.236;-6.622;2022-07-19T07:28:37;25.80;60.40
41784;DHT22;27458;53.236;-6.622;2022-07-19T07:31:02;26.00;60.20
41784;DHT22;27458;53.236;-6.622;2022-07-19T07:33:29;26.00;60.00
41784;DHT22;27458;53.236;-6.622;2022-07-19T07:35:54;26.10;59.90
41784;DHT22;27458;53.236;-6.622;2022-07-19T07:38:20;26.20;59.60
41784;DHT22;27458;53.236;-6.622;2022-07-19T07:40:46;26.20;59.20
41784;DHT22;27458;53.236;-6.622;2022-07-19T07:43:12;26.30;59.10
41784;DHT22;27458;53.236;-6.622;2022-07-19T07:45:37;26.50;59.20
41784;DHT22;27458;53.236;-6.622;2022-07-19T07:48:03;26.70;59.00
41784;DHT22;27458;53.236;-6.622;2022-07-19T07:50:29;26.90;58.60
41784;DHT22;27458;53.236;-6.622;2022-07-19T07:52:55;27.00;58.30
41784;DHT22;27458;53.236;-6.622;2022-07-19T07:55:23;27.20;58.40
41784;DHT22;27458;53.236;-6.622;2022-07-19T07:57:49;27.40;58.20
41784;DHT22;27458;53.236;-6.622;2022-07-19T08:00:14;27.50;57.70
41784;DHT22;27458;53.236;-6.622;2022-07-19T08:02:45;27.60;57.40
41784;DHT22;27458;53.236;-6.622;2022-07-19T08:05:11;27.80;57.20
41784;DHT22;27458;53.236;-6.622;2022-07-19T08:07:37;27.70;56.80
41784;DHT22;27458;53.236;-6.622;2022-07-19T08:10:05;27.60;56.80
41784;DHT22;27458;53.236;-6.622;2022-07-19T08:12:32;27.50;56.90
41784;DHT22;27458;53.236;-6.622;2022-07-19T08:14:58;27.50;57.20
41784;DHT22;27458;53.236;-6.622;2022-07-19T08:17:24;27.50;57.30
41784;DHT22;27458;53.236;-6.622;2022-07-19T08:19:50;27.60;57.50
41784;DHT22;27458;53.236;-6.622;2022-07-19T08:22:17;27.80;57.70
41784;DHT22;27458;53.236;-6.622;2022-07-19T08:24:45;28.10;57.70
41784;DHT22;27458;53.236;-6.622;2022-07-19T08:27:11;28.20;57.30
41784;DHT22;27458;53.236;-6.622;2022-07-19T08:29:36;28.50;57.10
41784;DHT22;27458;53.236;-6.622;2022-07-19T08:32:03;28.60;56.60
41784;DHT22;27458;53.236;-6.622;2022-07-19T08:34:28;28.60;56.20
41784;DHT22;27458;53.236;-6.622;2022-07-19T08:36:54;28.70;56.30
41784;DHT22;27458;53.236;-6.622;2022-07-19T08:39:20;28.70;56.20
41784;DHT22;27458;53.236;-6.622;2022-07-19T08:41:46;28.60;55.80
41784;DHT22;27458;53.236;-6.622;2022-07-19T08:44:12;28.50;55.70
41784;DHT22;27458;53.236;-6.622;2022-07-19T08:46:41;28.40;55.80
41784;DHT22;27458;53.236;-6.622;2022-07-19T08:49:09;28.30;55.70
41784;DHT22;27458;53.236;-6.622;2022-07-19T08:51:35;28.30;55.90
41784;DHT22;27458;53.236;-6.622;2022-07-19T08:54:00;28.20;55.80
41784;DHT22;27458;53.236;-6.622;2022-07-19T08:56:27;28.20;55.70
41784;DHT22;27458;53.236;-6.622;2022-07-19T08:59:12;28.20;55.70
41784;DHT22;27458;53.236;-6.622;2022-07-19T09:01:38;28.30;55.60
41784;DHT22;27458;53.236;-6.622;2022-07-19T09:04:08;28.20;55.30
41784;DHT22;27458;53.236;-6.622;2022-07-19T09:06:57;28.20;55.10
41784;DHT22;27458;53.236;-6.622;2022-07-19T09:09:32;28.20;55.20
41784;DHT22;27458;53.236;-6.622;2022-07-19T09:12:02;28.10;54.90
41784;DHT22;27458;53.236;-6.622;2022-07-19T09:14:38;28.10;55.00
41784;DHT22;27458;53.236;-6.622;2022-07-19T09:17:11;28.10;55.40
41784;DHT22;27458;53.236;-6.622;2022-07-19T09:19:44;28.10;55.30
41784;DHT22;27458;53.236;-6.622;2022-07-19T09:22:15;28.00;55.50
41784;DHT22;27458;53.236;-6.622;2022-07-19T09:24:45;28.00;55.80
41784;DHT22;27458;53.236;-6.622;2022-07-19T09:27:20;28.10;55.90
41784;DHT22;27458;53.236;-6.622;2022-07-19T09:29:53;28.00;55.80
41784;DHT22;27458;53.236;-6.622;2022-07-19T09:32:22;28.00;56.00
41784;DHT22;27458;53.236;-6.622;2022-07-19T09:34:52;28.10;56.00
41784;DHT22;27458;53.236;-6.622;2022-07-19T09:37:24;28.20;55.70
41784;DHT22;27458;53.236;-6.622;2022-07-19T09:42:23;28.30;55.50
41784;DHT22;27458;53.236;-6.622;2022-07-19T09:47:37;28.60;55.40
41784;DHT22;27458;53.236;-6.622;2022-07-19T09:50:12;28.70;55.30
41784;DHT22;27458;53.236;-6.622;2022-07-19T09:52:40;28.70;55.10
41784;DHT22;27458;53.236;-6.622;2022-07-19T09:55:07;28.80;55.10
41784;DHT22;27458;53.236;-6.622;2022-07-19T09:57:40;29.00;55.10
41784;DHT22;27458;53.236;-6.622;2022-07-19T10:00:07;29.20;55.00
41784;DHT22;27458;53.236;-6.622;2022-07-19T10:02:40;29.40;54.60
41784;DHT22;27458;53.236;-6.622;2022-07-19T10:05:06;29.50;54.00
41784;DHT22;27458;53.236;-6.622;2022-07-19T10:07:33;29.70;54.00
41784;DHT22;27458;53.236;-6.622;2022-07-19T10:10:13;29.80;53.50
41784;DHT22;27458;53.236;-6.622;2022-07-19T10:12:40;30.00;53.10
41784;DHT22;27458;53.236;-6.622;2022-07-19T10:15:08;30.20;53.30
41784;DHT22;27458;53.236;-6.622;2022-07-19T10:20:16;30.50;52.40
41784;DHT22;27458;53.236;-6.622;2022-07-19T10:22:44;30.50;51.90
41784;DHT22;27458;53.236;-6.622;2022-07-19T10:25:14;30.50;52.10
41784;DHT22;27458;53.236;-6.622;2022-07-19T10:27:47;30.50;52.30
41784;DHT22;27458;53.236;-6.622;2022-07-19T10:32:39;30.70;52.20
41784;DHT22;27458;53.236;-6.622;2022-07-19T10:37:41;30.70;52.30
41784;DHT22;27458;53.236;-6.622;2022-07-19T10:40:07;30.70;51.90
41784;DHT22;27458;53.236;-6.622;2022-07-19T10:42:33;30.60;51.50
41784;DHT22;27458;53.236;-6.622;2022-07-19T10:50:13;30.50;51.10
41784;DHT22;27458;53.236;-6.622;2022-07-19T10:52:44;30.30;51.30
41784;DHT22;27458;53.236;-6.622;2022-07-19T11:00:46;29.80;52.00
41784;DHT22;27458;53.236;-6.622;2022-07-19T11:05:49;29.90;52.70
41784;DHT22;27458;53.236;-6.622;2022-07-19T11:08:15;30.00;52.80
41784;DHT22;27458;53.236;-6.622;2022-07-19T11:10:42;30.00;52.80
41784;DHT22;27458;53.236;-6.622;2022-07-19T11:13:08;30.10;53.00
41784;DHT22;27458;53.236;-6.622;2022-07-19T11:15:34;30.00;52.90
41784;DHT22;27458;53.236;-6.622;2022-07-19T11:18:05;29.90;52.90
41784;DHT22;27458;53.236;-6.622;2022-07-19T11:20:34;29.80;53.20
41784;DHT22;27458;53.236;-6.622;2022-07-19T11:23:01;29.60;53.50
41784;DHT22;27458;53.236;-6.622;2022-07-19T11:25:37;29.40;53.80
41784;DHT22;27458;53.236;-6.622;2022-07-19T11:28:06;29.20;54.00
41784;DHT22;27458;53.236;-6.622;2022-07-19T11:30:35;29.10;54.10
41784;DHT22;27458;53.236;-6.622;2022-07-19T11:33:05;28.90;54.50
41784;DHT22;27458;53.236;-6.622;2022-07-19T11:35:31;28.80;54.80
41784;DHT22;27458;53.236;-6.622;2022-07-19T11:37:58;28.90;54.90
41784;DHT22;27458;53.236;-6.622;2022-07-19T11:40:31;29.00;55.00
41784;DHT22;27458;53.236;-6.622;2022-07-19T11:42:57;29.10;55.00
41784;DHT22;27458;53.236;-6.622;2022-07-19T11:45:26;29.20;54.90
41784;DHT22;27458;53.236;-6.622;2022-07-19T11:47:56;29.30;54.80
41784;DHT22;27458;53.236;-6.622;2022-07-19T11:50:25;29.40;54.70
41784;DHT22;27458;53.236;-6.622;2022-07-19T11:52:54;29.30;54.40
41784;DHT22;27458;53.236;-6.622;2022-07-19T11:55:25;29.10;54.30
41784;DHT22;27458;53.236;-6.622;2022-07-19T11:57:52;29.00;54.70
41784;DHT22;27458;53.236;-6.622;2022-07-19T12:00:19;28.70;54.90
41784;DHT22;27458;53.236;-6.622;2022-07-19T12:02:56;28.60;55.50
41784;DHT22;27458;53.236;-6.622;2022-07-19T12:05:27;28.50;56.20
41784;DHT22;27458;53.236;-6.622;2022-07-19T12:07:56;28.40;56.30
41784;DHT22;27458;53.236;-6.622;2022-07-19T12:10:51;28.40;56.60
41784;DHT22;27458;53.236;-6.622;2022-07-19T12:13:30;28.30;57.20
41784;DHT22;27458;53.236;-6.622;2022-07-19T12:15:58;28.30;57.10
41784;DHT22;27458;53.236;-6.622;2022-07-19T12:21:15;28.10;57.50
41784;DHT22;27458;53.236;-6.622;2022-07-19T12:23:42;28.00;57.60
41784;DHT22;27458;53.236;-6.622;2022-07-19T12:26:08;28.00;57.80
41784;DHT22;27458;53.236;-6.622;2022-07-19T12:28:34;28.10;58.00
41784;DHT22;27458;53.236;-6.622;2022-07-19T12:31:04;28.20;57.90
41784;DHT22;27458;53.236;-6.622;2022-07-19T12:33:30;28.30;57.90
41784;DHT22;27458;53.236;-6.622;2022-07-19T12:35:56;28.60;57.60
41784;DHT22;27458;53.236;-6.622;2022-07-19T12:38:33;28.70;57.20
41784;DHT22;27458;53.236;-6.622;2022-07-19T12:41:17;28.60;57.10
41784;DHT22;27458;53.236;-6.622;2022-07-19T12:43:43;28.60;57.00
41784;DHT22;27458;53.236;-6.622;2022-07-19T12:46:08;28.60;56.90
41784;DHT22;27458;53.236;-6.622;2022-07-19T12:48:34;28.70;56.80
41784;DHT22;27458;53.236;-6.622;2022-07-19T12:51:03;28.70;56.70
41784;DHT22;27458;53.236;-6.622;2022-07-19T12:53:28;28.80;56.70
41784;DHT22;27458;53.236;-6.622;2022-07-19T12:55:54;29.10;56.60
41784;DHT22;27458;53.236;-6.622;2022-07-19T12:58:20;29.20;56.20
41784;DHT22;27458;53.236;-6.622;2022-07-19T13:01:04;29.30;55.90
41784;DHT22;27458;53.236;-6.622;2022-07-19T13:03:31;29.60;55.70
41784;DHT22;27458;53.236;-6.622;2022-07-19T13:05:58;30.00;55.10
41784;DHT22;27458;53.236;-6.622;2022-07-19T13:08:26;30.20;54.50
41784;DHT22;27458;53.236;-6.622;2022-07-19T13:10:54;30.40;54.10
41784;DHT22;27458;53.236;-6.622;2022-07-19T13:13:20;30.50;53.50
41784;DHT22;27458;53.236;-6.622;2022-07-19T13:15:46;30.50;53.10
41784;DHT22;27458;53.236;-6.622;2022-07-19T13:18:13;30.50;53.30
41784;DHT22;27458;53.236;-6.622;2022-07-19T13:20:39;30.60;53.40
41784;DHT22;27458;53.236;-6.622;2022-07-19T13:23:05;30.60;53.40
41784;DHT22;27458;53.236;-6.622;2022-07-19T13:25:31;30.70;53.70
41784;DHT22;27458;53.236;-6.622;2022-07-19T13:27:57;30.80;54.30
41784;DHT22;27458;53.236;-6.622;2022-07-19T13:30:23;31.10;53.50
41784;DHT22;27458;53.236;-6.622;2022-07-19T13:32:48;31.30;53.50
41784;DHT22;27458;53.236;-6.622;2022-07-19T13:35:14;31.50;53.10
41784;DHT22;27458;53.236;-6.622;2022-07-19T13:37:41;31.70;52.90
41784;DHT22;27458;53.236;-6.622;2022-07-19T13:40:08;31.60;52.40
41784;DHT22;27458;53.236;-6.622;2022-07-19T13:42:34;31.50;52.50
41784;DHT22;27458;53.236;-6.622;2022-07-19T13:44:59;31.30;52.70
41784;DHT22;27458;53.236;-6.622;2022-07-19T13:47:25;31.40;53.10
41784;DHT22;27458;53.236;-6.622;2022-07-19T13:49:51;31.60;53.00
41784;DHT22;27458;53.236;-6.622;2022-07-19T13:52:17;31.90;52.70
41784;DHT22;27458;53.236;-6.622;2022-07-19T13:54:43;32.10;52.40
41784;DHT22;27458;53.236;-6.622;2022-07-19T13:57:09;32.30;52.10
41784;DHT22;27458;53.236;-6.622;2022-07-19T13:59:35;32.30;51.60
41784;DHT22;27458;53.236;-6.622;2022-07-19T14:02:01;32.40;51.40
41784;DHT22;27458;53.236;-6.622;2022-07-19T14:04:26;32.30;51.60
41784;DHT22;27458;53.236;-6.622;2022-07-19T14:06:52;32.20;51.20
41784;DHT22;27458;53.236;-6.622;2022-07-19T14:09:18;32.10;51.30
41784;DHT22;27458;53.236;-6.622;2022-07-19T14:11:44;32.00;51.40
41784;DHT22;27458;53.236;-6.622;2022-07-19T14:14:13;32.00;51.60
41784;DHT22;27458;53.236;-6.622;2022-07-19T14:16:39;32.00;51.50
41784;DHT22;27458;53.236;-6.622;2022-07-19T14:19:05;32.00;51.60
41784;DHT22;27458;53.236;-6.622;2022-07-19T14:21:30;32.00;51.90
41784;DHT22;27458;53.236;-6.622;2022-07-19T14:23:59;31.90;51.90
41784;DHT22;27458;53.236;-6.622;2022-07-19T14:26:25;31.90;52.10
41784;DHT22;27458;53.236;-6.622;2022-07-19T14:28:51;31.90;52.20
41784;DHT22;27458;53.236;-6.622;2022-07-19T14:31:17;32.00;52.40
41784;DHT22;27458;53.236;-6.622;2022-07-19T14:33:43;32.00;52.00
41784;DHT22;27458;53.236;-6.622;2022-07-19T14:36:09;32.20;51.80
41784;DHT22;27458;53.236;-6.622;2022-07-19T14:38:35;32.30;51.60
41784;DHT22;27458;53.236;-6.622;2022-07-19T14:41:00;32.30;51.20
41784;DHT22;27458;53.236;-6.622;2022-07-19T14:43:26;32.30;51.10
41784;DHT22;27458;53.236;-6.622;2022-07-19T14:45:52;32.30;51.20
41784;DHT22;27458;53.236;-6.622;2022-07-19T14:48:18;32.30;51.30
41784;DHT22;27458;53.236;-6.622;2022-07-19T14:50:44;32.30;51.30
41784;DHT22;27458;53.236;-6.622;2022-07-19T14:53:11;32.30;51.30
41784;DHT22;27458;53.236;-6.622;2022-07-19T14:55:37;32.20;51.30
41784;DHT22;27458;53.236;-6.622;2022-07-19T14:58:03;32.20;51.30
41784;DHT22;27458;53.236;-6.622;2022-07-19T15:00:29;32.20;51.50
41784;DHT22;27458;53.236;-6.622;2022-07-19T15:02:55;32.20;51.60
41784;DHT22;27458;53.236;-6.622;2022-07-19T15:05:21;32.10;51.70
41784;DHT22;27458;53.236;-6.622;2022-07-19T15:07:47;32.10;51.60
41784;DHT22;27458;53.236;-6.622;2022-07-19T15:10:13;32.20;51.30
41784;DHT22;27458;53.236;-6.622;2022-07-19T15:12:39;32.20;51.10
41784;DHT22;27458;53.236;-6.622;2022-07-19T15:15:05;32.20;51.30
41784;DHT22;27458;53.236;-6.622;2022-07-19T15:17:31;32.30;51.80
41784;DHT22;27458;53.236;-6.622;2022-07-19T15:19:57;32.30;51.80
41784;DHT22;27458;53.236;-6.622;2022-07-19T15:22:23;32.40;52.00
41784;DHT22;27458;53.236;-6.622;2022-07-19T15:24:49;32.40;52.50
41784;DHT22;27458;53.236;-6.622;2022-07-19T15:27:15;32.40;52.70
41784;DHT22;27458;53.236;-6.622;2022-07-19T15:29:41;32.40;53.10
41784;DHT22;27458;53.236;-6.622;2022-07-19T15:32:11;32.40;53.30
41784;DHT22;27458;53.236;-6.622;2022-07-19T15:34:38;32.40;53.50
41784;DHT22;27458;53.236;-6.622;2022-07-19T15:37:04;32.40;53.70
41784;DHT22;27458;53.236;-6.622;2022-07-19T15:39:30;32.40;53.90
41784;DHT22;27458;53.236;-6.622;2022-07-19T15:41:55;32.30;54.10
41784;DHT22;27458;53.236;-6.622;2022-07-19T15:44:21;32.30;54.30